Terminal Aerodrome Forecast
Issued by NWS

Home | Current Version | Previous Version | Graphics & Text | Print | Product List | Glossary On
Versions: 1 2 3 4 5 6 7 8 9 10 11 12 13 14 15 16 17 18 19 20
000
FTUS43 KABR 231100
TAFPIR
TAF
KPIR 231122Z 2312/2412 28008KT P6SM OVC080
     FM231400 31017G27KT P6SM OVC050
     FM231800 32025G35KT P6SM OVC035
     FM240300 32019KT P6SM OVC025=

USA.gov is the U.S. government's official web portal to all federal, state and local government web resources and services.